Time;durP1;ratioP1;P1;durP2;ratioP2;P2;SDS_P1;SDS_P2;PMS_P1;PMS_P2;Temp;Humidity;BMP_temperature;BMP_pressure;BME280_temperature;BME280_humidity;BME280_pressure;Samples;Min_cycle;Max_cycle;Signal;HPM_P1;HPM_P2
2021/08/30 00:01:59;;;;;;;2.70;0.80;;;;;;;;;;5094257;28;20056;-67
2021/08/30 00:04:25;;;;;;;1.63;1.00;;;;;;;;;;5094599;28;20023;-67
2021/08/30 00:06:52;;;;;;;1.40;0.70;;;;;;;;;;5093476;28;20039;-67
2021/08/30 00:09:19;;;;;;;1.37;0.70;;;;;;;;;;5089287;28;20032;-67
2021/08/30 00:11:46;;;;;;;2.40;0.73;;;;;;;;;;5089116;28;20081;-66
2021/08/30 00:14:12;;;;;;;1.83;0.80;;;;;;;;;;5105548;28;20023;-66
2021/08/30 00:16:39;;;;;;;2.63;1.10;;;;;;;;;;5109340;28;20494;-67
2021/08/30 00:19:06;;;;;;;2.73;1.13;;;;;;;;;;5114362;28;20061;-66
2021/08/30 00:21:33;;;;;;;4.20;1.20;;;;;;;;;;5114403;28;20020;-65
2021/08/30 00:24:00;;;;;;;3.83;1.30;;;;;;;;;;5114479;28;20036;-65
2021/08/30 00:26:27;;;;;;;4.67;2.13;;;;;;;;;;5114284;28;20038;-65
2021/08/30 00:28:53;;;;;;;3.00;1.43;;;;;;;;;;5114346;28;20024;-65
2021/08/30 00:31:20;;;;;;;1.73;0.73;;;;;;;;;;5109082;28;20436;-65
2021/08/30 00:33:47;;;;;;;3.80;0.90;;;;;;;;;;5109270;28;20478;-66
2021/08/30 00:36:14;;;;;;;6.53;1.57;;;;;;;;;;5109168;28;20024;-66
2021/08/30 00:38:41;;;;;;;5.50;2.03;;;;;;;;;;5108282;28;20031;-66
2021/08/30 00:41:07;;;;;;;3.40;1.40;;;;;;;;;;5072414;28;20024;-65
2021/08/30 00:43:34;;;;;;;2.43;0.90;;;;;;;;;;5073422;28;20548;-65
2021/08/30 00:46:01;;;;;;;3.23;0.77;;;;;;;;;;5073478;28;20016;-65
2021/08/30 00:48:28;;;;;;;2.73;0.80;;;;;;;;;;5073162;28;20023;-65
2021/08/30 00:50:56;;;;;;;2.57;1.07;;;;;;;;;;5073217;28;20155;-64
2021/08/30 00:53:22;;;;;;;2.17;0.83;;;;;;;;;;5069135;28;20534;-65
2021/08/30 00:55:49;;;;;;;3.83;1.03;;;;;;;;;;5067557;28;20384;-65
2021/08/30 00:58:16;;;;;;;5.10;1.23;;;;;;;;;;5067640;28;20552;-64
2021/08/30 01:00:43;;;;;;;5.23;1.10;;;;;;;;;;5067780;28;20056;-66
2021/08/30 01:03:10;;;;;;;2.20;0.97;;;;;;;;;;5090081;28;20027;-65
2021/08/30 01:05:38;;;;;;;2.80;1.23;;;;;;;;;;5097265;28;20065;-65
2021/08/30 01:08:08;;;;;;;2.83;1.50;;;;;;;;;;5113620;28;20023;-65
2021/08/30 01:10:50;;;;;;;3.30;1.20;;;;;;;;;;5113561;28;20080;-64
2021/08/30 01:13:22;;;;;;;3.37;1.23;;;;;;;;;;5113378;28;20123;-65
2021/08/30 01:15:49;;;;;;;3.13;1.40;;;;;;;;;;5109598;28;20034;-64
2021/08/30 01:18:21;;;;;;;2.70;0.90;;;;;;;;;;5108364;28;20482;-65
2021/08/30 01:20:53;;;;;;;2.97;1.03;;;;;;;;;;5108257;28;20359;-65
2021/08/30 01:23:22;;;;;;;6.10;1.30;;;;;;;;;;5108148;28;20069;-64
2021/08/30 01:25:53;;;;;;;8.03;2.07;;;;;;;;;;5110901;28;20042;-65
2021/08/30 01:28:28;;;;;;;2.00;1.00;;;;;;;;;;5113188;28;20376;-65
2021/08/30 01:30:57;;;;;;;3.00;0.80;;;;;;;;;;5109076;28;20047;-64
2021/08/30 01:33:25;;;;;;;2.43;0.97;;;;;;;;;;5092744;28;20038;-64
2021/08/30 01:35:51;;;;;;;2.87;1.30;;;;;;;;;;5092849;28;20108;-64
2021/08/30 01:38:19;;;;;;;3.03;0.87;;;;;;;;;;5088813;28;20012;-65
2021/08/30 01:40:46;;;;;;;3.93;1.20;;;;;;;;;;5087056;28;20039;-65
2021/08/30 01:43:13;;;;;;;4.13;0.80;;;;;;;;;;5087452;28;20107;-65
2021/08/30 01:45:40;;;;;;;4.13;1.27;;;;;;;;;;5087339;28;20024;-65
2021/08/30 01:48:07;;;;;;;4.40;0.97;;;;;;;;;;5090250;28;20479;-65
2021/08/30 01:50:37;;;;;;;4.27;1.30;;;;;;;;;;5092469;28;20104;-65
2021/08/30 01:53:05;;;;;;;3.37;0.90;;;;;;;;;;5092385;28;20020;-64
2021/08/30 01:55:42;;;;;;;1.97;0.90;;;;;;;;;;5092481;28;20168;-64
2021/08/30 02:00:44;;;;;;;10.63;1.17;;;;;;;;;;5088907;28;20082;-64
2021/08/30 02:03:28;;;;;;;2.50;1.00;;;;;;;;;;5087293;28;20020;-65
2021/08/30 02:05:56;;;;;;;3.28;1.05;;;;;;;;;;5087145;28;20475;-64
2021/08/30 02:08:23;;;;;;;1.53;0.80;;;;;;;;;;5086820;28;20409;-64
2021/08/30 02:10:52;;;;;;;2.47;0.90;;;;;;;;;;5090512;28;20028;-64
2021/08/30 02:13:19;;;;;;;6.67;1.50;;;;;;;;;;5092084;28;20030;-64
2021/08/30 02:15:46;;;;;;;2.73;1.00;;;;;;;;;;5092327;28;20050;-64
2021/08/30 02:18:17;;;;;;;2.47;0.90;;;;;;;;;;5092252;28;20031;-65
2021/08/30 02:20:48;;;;;;;2.57;1.00;;;;;;;;;;5091970;28;20028;-65
2021/08/30 02:23:16;;;;;;;2.60;1.10;;;;;;;;;;5087912;28;20028;-65
2021/08/30 02:25:45;;;;;;;2.63;0.93;;;;;;;;;;5087945;28;20028;-65
2021/08/30 02:28:12;;;;;;;1.80;0.90;;;;;;;;;;5086774;28;20429;-64
2021/08/30 02:30:40;;;;;;;3.30;1.00;;;;;;;;;;5086827;28;20408;-64
2021/08/30 02:33:09;;;;;;;2.07;0.83;;;;;;;;;;5089753;28;20051;-65
2021/08/30 02:35:37;;;;;;;2.57;1.00;;;;;;;;;;5091960;28;20090;-64
2021/08/30 02:38:05;;;;;;;4.07;1.20;;;;;;;;;;5092042;28;20050;-64
2021/08/30 02:40:32;;;;;;;3.07;1.23;;;;;;;;;;5091481;28;20031;-65
2021/08/30 02:43:01;;;;;;;3.73;1.43;;;;;;;;;;5092058;28;20028;-64
2021/08/30 02:45:28;;;;;;;1.27;0.90;;;;;;;;;;5088584;28;20069;-64
2021/08/30 02:47:57;;;;;;;5.90;1.40;;;;;;;;;;5086880;28;20020;-64
2021/08/30 02:50:25;;;;;;;3.60;1.27;;;;;;;;;;5087142;28;20077;-65
2021/08/30 02:52:52;;;;;;;8.33;1.30;;;;;;;;;;5086852;28;20028;-64
2021/08/30 02:55:21;;;;;;;4.20;1.10;;;;;;;;;;5090094;28;20037;-64
2021/08/30 02:57:50;;;;;;;2.30;1.10;;;;;;;;;;5091311;28;20024;-63
2021/08/30 03:00:18;;;;;;;7.70;1.23;;;;;;;;;;5092285;28;20099;-65
2021/08/30 03:02:45;;;;;;;9.07;1.20;;;;;;;;;;5092055;28;20482;-67
2021/08/30 03:05:12;;;;;;;5.47;1.23;;;;;;;;;;5090867;28;20034;-67
2021/08/30 03:07:40;;;;;;;6.63;1.17;;;;;;;;;;5089306;28;20031;-66
2021/08/30 03:10:06;;;;;;;1.67;0.83;;;;;;;;;;5086796;28;20521;-66
2021/08/30 03:12:43;;;;;;;1.77;0.90;;;;;;;;;;5086800;28;20024;-65
2021/08/30 03:15:13;;;;;;;3.83;1.50;;;;;;;;;;5086895;28;20043;-64
2021/08/30 03:17:43;;;;;;;3.70;1.53;;;;;;;;;;5088559;28;20058;-64
2021/08/30 03:20:10;;;;;;;2.10;1.30;;;;;;;;;;5094112;28;20024;-64
2021/08/30 03:22:37;;;;;;;5.63;1.53;;;;;;;;;;5096133;28;20031;-64
2021/08/30 03:25:05;;;;;;;2.30;1.27;;;;;;;;;;5095159;28;20381;-64
2021/08/30 03:27:32;;;;;;;3.10;1.33;;;;;;;;;;5095126;28;20414;-64
2021/08/30 03:30:00;;;;;;;3.23;1.40;;;;;;;;;;5109006;28;20023;-64
2021/08/30 03:32:27;;;;;;;2.80;1.00;;;;;;;;;;5110463;28;20388;-64
2021/08/30 03:34:54;;;;;;;2.03;0.93;;;;;;;;;;5110705;28;20028;-64
2021/08/30 03:37:20;;;;;;;3.13;1.37;;;;;;;;;;5110658;28;20024;-64
2021/08/30 03:39:47;;;;;;;4.80;1.30;;;;;;;;;;5111485;28;20566;-64
2021/08/30 03:42:14;;;;;;;2.37;1.30;;;;;;;;;;5115405;28;20035;-64
2021/08/30 03:44:41;;;;;;;2.10;1.27;;;;;;;;;;5094914;28;20027;-64
2021/08/30 03:47:10;;;;;;;2.47;1.40;;;;;;;;;;5097860;28;20027;-65
2021/08/30 03:49:37;;;;;;;3.40;1.13;;;;;;;;;;5115447;28;20027;-64
2021/08/30 03:52:04;;;;;;;3.60;1.83;;;;;;;;;;5113835;28;20047;-64
2021/08/30 03:54:31;;;;;;;4.20;1.87;;;;;;;;;;5110368;28;20035;-64
2021/08/30 03:56:59;;;;;;;2.80;1.20;;;;;;;;;;5110020;28;20038;-64
2021/08/30 03:59:28;;;;;;;3.23;1.43;;;;;;;;;;5110319;28;20107;-64
2021/08/30 04:01:56;;;;;;;2.30;1.03;;;;;;;;;;5110456;28;20082;-64
2021/08/30 04:04:24;;;;;;;3.03;1.37;;;;;;;;;;5114516;28;20034;-64
2021/08/30 04:06:51;;;;;;;3.03;1.37;;;;;;;;;;5114946;28;20111;-64
2021/08/30 04:09:20;;;;;;;6.30;1.30;;;;;;;;;;5110631;28;20060;-64
2021/08/30 04:11:47;;;;;;;1.80;1.00;;;;;;;;;;5094341;28;20034;-64
2021/08/30 04:14:15;;;;;;;3.87;1.00;;;;;;;;;;5106746;28;20039;-64
2021/08/30 04:16:42;;;;;;;3.40;1.00;;;;;;;;;;5109947;28;20035;-64
2021/08/30 04:19:09;;;;;;;2.30;0.87;;;;;;;;;;5109842;28;20027;-64
2021/08/30 04:21:36;;;;;;;0.97;0.60;;;;;;;;;;5109285;28;20141;-65
2021/08/30 04:24:02;;;;;;;4.13;1.27;;;;;;;;;;5109726;28;20425;-64
2021/08/30 04:26:29;;;;;;;4.37;0.77;;;;;;;;;;5114122;28;20589;-64
2021/08/30 04:28:56;;;;;;;3.47;0.60;;;;;;;;;;5114640;28;20039;-64
2021/08/30 04:31:23;;;;;;;2.57;1.13;;;;;;;;;;5114131;28;20032;-64
2021/08/30 04:33:50;;;;;;;1.03;0.70;;;;;;;;;;5114468;28;20107;-64
2021/08/30 04:36:16;;;;;;;1.23;0.60;;;;;;;;;;5114437;28;20374;-64
2021/08/30 04:38:43;;;;;;;1.53;0.60;;;;;;;;;;5109838;28;20280;-64
2021/08/30 04:41:10;;;;;;;3.57;1.10;;;;;;;;;;5107091;28;20532;-64
2021/08/30 04:43:37;;;;;;;3.17;0.63;;;;;;;;;;5108963;28;20019;-64
2021/08/30 04:46:04;;;;;;;2.20;0.80;;;;;;;;;;5109160;28;20614;-64
2021/08/30 04:48:30;;;;;;;5.37;1.30;;;;;;;;;;5097362;28;20374;-63
2021/08/30 04:50:57;;;;;;;6.87;1.17;;;;;;;;;;5093858;28;20433;-64
2021/08/30 04:53:24;;;;;;;4.67;1.00;;;;;;;;;;5093607;28;20497;-64
2021/08/30 04:55:50;;;;;;;1.80;0.93;;;;;;;;;;5093573;28;20048;-64
2021/08/30 04:58:17;;;;;;;5.10;1.27;;;;;;;;;;5093448;28;20528;-64
2021/08/30 05:00:44;;;;;;;7.57;1.50;;;;;;;;;;5089509;28;20028;-64
2021/08/30 05:03:11;;;;;;;5.03;1.60;;;;;;;;;;5100360;28;20062;-64
2021/08/30 05:05:38;;;;;;;3.30;1.50;;;;;;;;;;5108694;28;20032;-64
2021/08/30 05:08:04;;;;;;;4.87;1.57;;;;;;;;;;5108789;28;20038;-64
2021/08/30 05:10:31;;;;;;;6.13;1.60;;;;;;;;;;5111396;28;20078;-65
2021/08/30 05:12:58;;;;;;;2.27;1.33;;;;;;;;;;5113611;28;20024;-64
2021/08/30 05:15:25;;;;;;;4.00;1.27;;;;;;;;;;5113489;28;20094;-64
2021/08/30 05:17:52;;;;;;;5.30;1.47;;;;;;;;;;5113348;28;20064;-65
2021/08/30 05:20:19;;;;;;;2.20;1.30;;;;;;;;;;5113400;28;20482;-64
2021/08/30 05:22:46;;;;;;;3.53;1.60;;;;;;;;;;5110839;28;20385;-64
2021/08/30 05:25:13;;;;;;;3.73;1.40;;;;;;;;;;5108922;28;20024;-64
2021/08/30 05:27:41;;;;;;;4.60;1.47;;;;;;;;;;5108498;28;20063;-64
2021/08/30 05:30:08;;;;;;;2.30;1.20;;;;;;;;;;5092123;28;20447;-65
2021/08/30 05:32:35;;;;;;;5.63;1.53;;;;;;;;;;5089748;28;20508;-64
2021/08/30 05:35:02;;;;;;;6.50;2.33;;;;;;;;;;5092970;28;20535;-64
2021/08/30 05:37:28;;;;;;;3.07;1.67;;;;;;;;;;5092540;28;20489;-64
2021/08/30 05:39:55;;;;;;;3.90;1.80;;;;;;;;;;5092541;28;20024;-64
2021/08/30 05:42:22;;;;;;;4.60;1.40;;;;;;;;;;5092388;28;20028;-64
2021/08/30 05:44:49;;;;;;;5.77;1.87;;;;;;;;;;5091040;28;20024;-64
2021/08/30 05:47:15;;;;;;;5.70;1.57;;;;;;;;;;5087645;28;20416;-64
2021/08/30 05:49:42;;;;;;;5.47;1.57;;;;;;;;;;5087789;28;20016;-64
2021/08/30 05:52:12;;;;;;;3.27;1.30;;;;;;;;;;5087589;28;20028;-64
2021/08/30 05:54:39;;;;;;;3.97;1.30;;;;;;;;;;5088242;28;20028;-64
2021/08/30 05:57:06;;;;;;;3.27;1.20;;;;;;;;;;5096245;28;20126;-64
2021/08/30 05:59:36;;;;;;;4.10;1.30;;;;;;;;;;5112781;28;20024;-64
2021/08/30 06:02:03;;;;;;;4.57;1.60;;;;;;;;;;5112978;28;20107;-63
2021/08/30 06:04:30;;;;;;;6.73;1.63;;;;;;;;;;5108918;28;20450;-64
2021/08/30 06:06:57;;;;;;;2.00;1.00;;;;;;;;;;5090940;28;20031;-64
2021/08/30 06:09:23;;;;;;;2.10;1.20;;;;;;;;;;5087462;28;20020;-64
2021/08/30 06:11:51;;;;;;;3.10;1.20;;;;;;;;;;5087017;28;20050;-64
2021/08/30 06:14:18;;;;;;;3.40;1.60;;;;;;;;;;5087484;28;20024;-64
2021/08/30 06:16:45;;;;;;;10.03;1.33;;;;;;;;;;5087336;28;20036;-64
2021/08/30 06:19:12;;;;;;;3.87;1.30;;;;;;;;;;5091594;28;20024;-64
2021/08/30 06:21:38;;;;;;;3.03;1.40;;;;;;;;;;5112225;28;20047;-64
2021/08/30 06:24:06;;;;;;;6.47;1.77;;;;;;;;;;5112739;28;20031;-64
2021/08/30 06:26:36;;;;;;;4.47;1.60;;;;;;;;;;5112604;28;20378;-64
2021/08/30 06:29:03;;;;;;;4.73;1.37;;;;;;;;;;5111776;28;20024;-64
2021/08/30 06:31:30;;;;;;;1.77;0.90;;;;;;;;;;5107271;28;20111;-64
2021/08/30 06:33:57;;;;;;;1.73;0.77;;;;;;;;;;5107453;28;20031;-64
2021/08/30 06:36:24;;;;;;;4.47;1.10;;;;;;;;;;5107508;28;20441;-63
2021/08/30 06:38:51;;;;;;;3.80;1.00;;;;;;;;;;5107353;28;20028;-63
2021/08/30 06:41:18;;;;;;;3.47;0.60;;;;;;;;;;5112352;28;20468;-63
2021/08/30 06:43:45;;;;;;;6.93;0.83;;;;;;;;;;5112517;28;20099;-64
2021/08/30 06:46:11;;;;;;;6.87;1.37;;;;;;;;;;5106907;28;20116;-64
2021/08/30 06:48:38;;;;;;;2.90;0.50;;;;;;;;;;5092085;28;20039;-64
2021/08/30 06:51:05;;;;;;;1.67;0.97;;;;;;;;;;5092101;28;20024;-63
2021/08/30 06:53:32;;;;;;;1.33;0.43;;;;;;;;;;5086966;28;20565;-64
2021/08/30 06:55:59;;;;;;;0.93;0.67;;;;;;;;;;5072927;28;20379;-64
2021/08/30 06:58:25;;;;;;;4.80;0.63;;;;;;;;;;5090835;28;20019;-64
2021/08/30 07:00:52;;;;;;;2.53;0.50;;;;;;;;;;5090673;28;20024;-63
2021/08/30 07:03:19;;;;;;;8.63;2.07;;;;;;;;;;5094383;28;20024;-64
2021/08/30 07:05:46;;;;;;;0.90;0.50;;;;;;;;;;5102502;28;20023;-64
2021/08/30 07:08:13;;;;;;;1.10;0.50;;;;;;;;;;5116189;28;20400;-63
2021/08/30 07:10:39;;;;;;;2.47;0.63;;;;;;;;;;5116304;28;20412;-63
2021/08/30 07:13:06;;;;;;;4.33;0.53;;;;;;;;;;5116011;28;20382;-63
2021/08/30 07:15:33;;;;;;;1.90;0.50;;;;;;;;;;5111761;28;20097;-63
2021/08/30 07:18:00;;;;;;;2.40;0.50;;;;;;;;;;5110580;28;20055;-64
2021/08/30 07:20:27;;;;;;;3.70;0.50;;;;;;;;;;5105411;28;20028;-64
2021/08/30 07:22:53;;;;;;;2.53;0.50;;;;;;;;;;5090243;28;20024;-63
2021/08/30 07:25:20;;;;;;;1.70;0.60;;;;;;;;;;5093676;28;20023;-63
2021/08/30 07:27:48;;;;;;;2.00;0.60;;;;;;;;;;5095409;28;20032;-63
2021/08/30 07:30:15;;;;;;;4.87;0.50;;;;;;;;;;5095343;28;20066;-63
2021/08/30 07:32:42;;;;;;;4.10;0.47;;;;;;;;;;5095194;28;20115;-63
2021/08/30 07:35:09;;;;;;;1.70;0.53;;;;;;;;;;5095385;28;20046;-63
2021/08/30 07:37:37;;;;;;;1.70;0.60;;;;;;;;;;5091381;28;20355;-64
2021/08/30 07:40:04;;;;;;;4.40;0.67;;;;;;;;;;5089874;28;20031;-63
2021/08/30 07:42:30;;;;;;;1.90;0.80;;;;;;;;;;5089886;28;20443;-63
2021/08/30 07:44:57;;;;;;;1.10;0.50;;;;;;;;;;5105547;28;20397;-64
2021/08/30 07:47:24;;;;;;;1.60;0.70;;;;;;;;;;5112788;28;20412;-64
2021/08/30 07:49:51;;;;;;;3.37;0.80;;;;;;;;;;5115219;28;20043;-64
2021/08/30 07:52:20;;;;;;;5.30;0.93;;;;;;;;;;5115252;28;20378;-63
2021/08/30 07:54:48;;;;;;;3.70;0.93;;;;;;;;;;5114982;28;20051;-63
2021/08/30 07:57:15;;;;;;;4.53;0.80;;;;;;;;;;5115141;28;20094;-63
2021/08/30 07:59:42;;;;;;;2.50;0.57;;;;;;;;;;5112249;28;20019;-63
2021/08/30 08:02:08;;;;;;;3.57;0.70;;;;;;;;;;5109949;28;20107;-64
2021/08/30 08:04:35;;;;;;;4.90;0.90;;;;;;;;;;5109489;28;20176;-63
2021/08/30 08:07:02;;;;;;;3.50;0.87;;;;;;;;;;5109841;28;20024;-63
2021/08/30 08:09:30;;;;;;;4.23;0.80;;;;;;;;;;5112009;28;20096;-63
2021/08/30 08:11:57;;;;;;;2.30;0.70;;;;;;;;;;5094541;28;20370;-63
2021/08/30 08:14:24;;;;;;;5.27;0.63;;;;;;;;;;5094335;28;20031;-63
2021/08/30 08:16:51;;;;;;;4.43;0.93;;;;;;;;;;5094420;28;20069;-63
2021/08/30 08:19:17;;;;;;;3.27;0.70;;;;;;;;;;5094414;28;20020;-63
2021/08/30 08:21:44;;;;;;;1.37;0.53;;;;;;;;;;5093081;28;20032;-63
2021/08/30 08:24:11;;;;;;;2.33;0.63;;;;;;;;;;5089114;28;20038;-63
2021/08/30 08:26:38;;;;;;;1.83;0.57;;;;;;;;;;5088983;28;20038;-63
2021/08/30 08:29:05;;;;;;;3.70;0.50;;;;;;;;;;5089252;28;20115;-63
2021/08/30 08:31:32;;;;;;;10.23;1.07;;;;;;;;;;5090197;28;20020;-63
2021/08/30 08:33:59;;;;;;;3.20;1.10;;;;;;;;;;5112963;28;20058;-63
2021/08/30 08:36:26;;;;;;;2.13;0.87;;;;;;;;;;5114577;28;20023;-63
2021/08/30 08:38:53;;;;;;;1.47;0.70;;;;;;;;;;5114433;28;20016;-63
2021/08/30 08:41:20;;;;;;;1.70;0.50;;;;;;;;;;5114357;28;20031;-63
2021/08/30 08:43:47;;;;;;;1.17;0.60;;;;;;;;;;5112053;28;20020;-63
2021/08/30 08:46:14;;;;;;;6.70;0.60;;;;;;;;;;5109204;28;20020;-63
2021/08/30 08:48:41;;;;;;;9.57;0.73;;;;;;;;;;5108901;28;20019;-63
2021/08/30 08:51:07;;;;;;;2.90;0.83;;;;;;;;;;5108947;28;20481;-63
2021/08/30 08:53:34;;;;;;;0.90;0.53;;;;;;;;;;5109843;28;20436;-63
2021/08/30 08:56:01;;;;;;;3.17;0.80;;;;;;;;;;5114128;28;20525;-62
2021/08/30 08:58:28;;;;;;;5.23;1.10;;;;;;;;;;5112364;28;20485;-63
2021/08/30 09:01:02;;;;;;;1.40;0.70;;;;;;;;;;5113590;28;20478;-62
2021/08/30 09:03:29;;;;;;;1.58;0.80;;;;;;;;;;5113647;28;20031;-63
2021/08/30 09:06:06;;;;;;;2.93;1.67;;;;;;;;;;5094195;28;20032;-63
2021/08/30 09:08:41;;;;;;;0.87;0.70;;;;;;;;;;5108671;28;20106;-63
2021/08/30 09:11:15;;;;;;;2.73;0.90;;;;;;;;;;5108444;28;20051;-63
2021/08/30 09:13:49;;;;;;;4.43;1.07;;;;;;;;;;5109217;28;20031;-63
2021/08/30 09:16:18;;;;;;;5.83;1.40;;;;;;;;;;5109945;28;20034;-62
2021/08/30 09:18:45;;;;;;;5.37;0.77;;;;;;;;;;5113383;28;20098;-62
2021/08/30 09:21:12;;;;;;;2.00;0.80;;;;;;;;;;5113627;28;20024;-63
2021/08/30 09:23:42;;;;;;;2.27;0.70;;;;;;;;;;5113379;28;20028;-63
2021/08/30 09:26:16;;;;;;;6.60;0.80;;;;;;;;;;5113369;28;20027;-63
2021/08/30 09:28:49;;;;;;;4.70;1.00;;;;;;;;;;5095091;28;20024;-63
2021/08/30 09:31:16;;;;;;;2.87;0.90;;;;;;;;;;5087874;28;20076;-63
2021/08/30 09:33:49;;;;;;;3.40;0.80;;;;;;;;;;5098445;28;20040;-63
2021/08/30 09:36:17;;;;;;;2.20;0.90;;;;;;;;;;5107644;28;20019;-63
2021/08/30 09:38:44;;;;;;;2.70;0.47;;;;;;;;;;5110102;28;20081;-62
2021/08/30 09:41:11;;;;;;;1.57;0.80;;;;;;;;;;5113073;28;20382;-62
2021/08/30 09:43:38;;;;;;;2.83;1.10;;;;;;;;;;5113333;28;20027;-62
2021/08/30 09:46:08;;;;;;;1.40;0.77;;;;;;;;;;5113111;28;20019;-62
2021/08/30 09:48:35;;;;;;;10.80;1.33;;;;;;;;;;5113139;28;20492;-62
2021/08/30 09:51:03;;;;;;;4.33;1.10;;;;;;;;;;5110680;28;20134;-63
2021/08/30 09:53:31;;;;;;;5.77;0.90;;;;;;;;;;5107757;28;20106;-62
2021/08/30 09:55:58;;;;;;;5.37;1.03;;;;;;;;;;5107785;28;20030;-62
2021/08/30 09:58:29;;;;;;;6.37;1.07;;;;;;;;;;5107611;28;20023;-63
2021/08/30 10:01:01;;;;;;;3.63;0.90;;;;;;;;;;5092133;28;20082;-62
2021/08/30 10:03:31;;;;;;;14.40;1.53;;;;;;;;;;5092576;28;20020;-62
2021/08/30 10:05:58;;;;;;;6.60;1.17;;;;;;;;;;5092213;28;20030;-62
2021/08/30 10:08:26;;;;;;;6.13;1.53;;;;;;;;;;5092456;28;20478;-62
2021/08/30 10:10:53;;;;;;;3.00;0.90;;;;;;;;;;5092635;28;20032;-62
2021/08/30 10:13:20;;;;;;;1.70;0.83;;;;;;;;;;5090025;28;20076;-64
2021/08/30 10:15:51;;;;;;;8.13;1.20;;;;;;;;;;5087050;28;20048;-62
2021/08/30 10:18:18;;;;;;;1.83;0.90;;;;;;;;;;5087195;28;20473;-62
2021/08/30 10:20:45;;;;;;;1.60;0.77;;;;;;;;;;5086874;28;20054;-62
2021/08/30 10:23:12;;;;;;;12.40;1.57;;;;;;;;;;5088579;28;20020;-62
2021/08/30 10:25:40;;;;;;;4.27;1.00;;;;;;;;;;5092157;28;20055;-62
2021/08/30 10:28:08;;;;;;;3.43;1.10;;;;;;;;;;5102000;28;20023;-63
2021/08/30 10:30:37;;;;;;;1.20;0.60;;;;;;;;;;5116962;28;20028;-62
2021/08/30 10:33:05;;;;;;;1.37;0.77;;;;;;;;;;5116457;28;20401;-62
2021/08/30 10:35:34;;;;;;;2.33;0.73;;;;;;;;;;5114751;28;20024;-62
2021/08/30 10:38:03;;;;;;;3.60;0.83;;;;;;;;;;5111578;28;20024;-62
2021/08/30 10:40:31;;;;;;;4.33;0.90;;;;;;;;;;5111403;28;20027;-62
2021/08/30 10:42:59;;;;;;;3.23;1.00;;;;;;;;;;5111531;28;20103;-62
2021/08/30 10:45:33;;;;;;;2.73;0.80;;;;;;;;;;5112783;28;20023;-62
2021/08/30 10:48:01;;;;;;;8.87;1.00;;;;;;;;;;5116428;28;20477;-62
2021/08/30 10:50:28;;;;;;;4.40;0.97;;;;;;;;;;5116210;28;20026;-62
2021/08/30 10:53:08;;;;;;;5.90;1.00;;;;;;;;;;5116370;28;20157;-62
2021/08/30 10:55:37;;;;;;;4.67;1.70;;;;;;;;;;5113045;28;20034;-63
2021/08/30 10:58:23;;;;;;;3.30;0.90;;;;;;;;;;5073342;28;20364;-62
2021/08/30 11:00:52;;;;;;;3.27;0.83;;;;;;;;;;5093760;28;20057;-63
2021/08/30 11:03:29;;;;;;;4.07;0.60;;;;;;;;;;5079730;28;20036;-64
2021/08/30 11:06:14;;;;;;;4.97;0.90;;;;;;;;;;5082755;28;20356;-64
2021/08/30 11:08:42;;;;;;;5.63;1.15;;;;;;;;;;5093389;28;20024;-63
2021/08/30 11:11:09;;;;;;;1.90;0.87;;;;;;;;;;5078721;28;20466;-63
2021/08/30 11:13:35;;;;;;;6.77;0.93;;;;;;;;;;5075254;28;20507;-65
2021/08/30 11:16:02;;;;;;;4.67;1.00;;;;;;;;;;5075758;28;20433;-65
2021/08/30 11:18:29;;;;;;;4.80;1.00;;;;;;;;;;5108532;28;20030;-63
2021/08/30 11:20:56;;;;;;;3.47;0.80;;;;;;;;;;5112667;28;20032;-65
2021/08/30 11:23:28;;;;;;;2.00;0.80;;;;;;;;;;5110405;28;20028;-66
2021/08/30 11:26:03;;;;;;;10.90;0.90;;;;;;;;;;5110626;28;20370;-62
2021/08/30 11:28:30;;;;;;;1.17;0.60;;;;;;;;;;5110446;28;20032;-64
2021/08/30 11:30:56;;;;;;;3.57;0.80;;;;;;;;;;5113593;28;20369;-66
2021/08/30 11:33:24;;;;;;;3.53;0.67;;;;;;;;;;5115657;28;20032;-64
2021/08/30 11:35:51;;;;;;;3.67;0.57;;;;;;;;;;5115596;28;20051;-65
2021/08/30 11:38:18;;;;;;;1.03;0.60;;;;;;;;;;5113388;28;20028;-65
2021/08/30 11:40:45;;;;;;;2.40;0.90;;;;;;;;;;5103118;28;20028;-68
2021/08/30 11:43:13;;;;;;;1.63;0.53;;;;;;;;;;5082090;28;20028;-68
2021/08/30 11:45:40;;;;;;;2.77;1.07;;;;;;;;;;5069663;28;20016;-67
2021/08/30 11:48:06;;;;;;;1.40;0.60;;;;;;;;;;5069694;28;20020;-66
2021/08/30 11:50:34;;;;;;;1.00;0.60;;;;;;;;;;5069687;28;20358;-66
2021/08/30 11:53:01;;;;;;;3.00;0.77;;;;;;;;;;5072019;28;20353;-66
2021/08/30 11:55:32;;;;;;;3.13;0.80;;;;;;;;;;5090226;28;20030;-65
2021/08/30 11:58:03;;;;;;;6.17;0.80;;;;;;;;;;5115010;28;20051;-67
2021/08/30 12:00:30;;;;;;;4.17;0.90;;;;;;;;;;5099330;28;20411;-67
2021/08/30 12:02:58;;;;;;;3.03;0.90;;;;;;;;;;5102199;28;20065;-67
2021/08/30 12:05:26;;;;;;;5.00;0.60;;;;;;;;;;5112099;28;20026;-67
2021/08/30 12:07:53;;;;;;;2.00;0.50;;;;;;;;;;5109866;28;20126;-67
2021/08/30 12:10:21;;;;;;;2.43;0.77;;;;;;;;;;5109548;28;20062;-65
2021/08/30 12:15:49;;;;;;;1.50;0.70;;;;;;;;;;5087733;28;20024;-66
2021/08/30 12:18:19;;;;;;;4.37;0.77;;;;;;;;;;5114656;28;20020;-65
2021/08/30 12:20:47;;;;;;;1.13;0.73;;;;;;;;;;5110012;28;20024;-66
2021/08/30 12:23:20;;;;;;;1.00;0.60;;;;;;;;;;5093875;28;20077;-66
2021/08/30 12:25:48;;;;;;;4.03;0.90;;;;;;;;;;5094267;28;20020;-66
2021/08/30 12:28:17;;;;;;;4.50;0.87;;;;;;;;;;5071857;28;20074;-66
2021/08/30 12:30:45;;;;;;;9.17;1.27;;;;;;;;;;5087921;28;20031;-67
2021/08/30 12:33:20;;;;;;;4.73;0.90;;;;;;;;;;5086840;28;20031;-67
2021/08/30 12:35:46;;;;;;;;;;;;;;;;;;5091986;28;20120;-66
2021/08/30 12:38:16;;;;;;;1.00;0.70;;;;;;;;;;5110756;28;19907;-67
2021/08/30 12:40:44;;;;;;;6.30;1.10;;;;;;;;;;5112452;28;20027;-66
2021/08/30 12:43:11;;;;;;;1.80;0.60;;;;;;;;;;5112221;28;20015;-66
2021/08/30 12:45:38;;;;;;;1.17;0.67;;;;;;;;;;5113045;28;20016;-66
2021/08/30 12:48:06;;;;;;;1.67;0.70;;;;;;;;;;5113139;28;20028;-67
2021/08/30 12:50:33;;;;;;;1.70;0.70;;;;;;;;;;5110224;28;20023;-66
2021/08/30 12:53:00;;;;;;;2.10;0.90;;;;;;;;;;5105702;28;20028;-66
2021/08/30 12:55:27;;;;;;;2.50;0.93;;;;;;;;;;5108544;28;20089;-66
2021/08/30 12:57:54;;;;;;;2.27;0.80;;;;;;;;;;5090417;28;20028;-66
2021/08/30 13:00:21;;;;;;;1.20;0.60;;;;;;;;;;5092935;28;20028;-66
2021/08/30 13:02:50;;;;;;;2.00;0.80;;;;;;;;;;5113523;28;20016;-66
2021/08/30 13:05:19;;;;;;;3.00;0.90;;;;;;;;;;5112852;28;20023;-66
2021/08/30 13:07:46;;;;;;;2.33;0.73;;;;;;;;;;5094833;28;20045;-66
2021/08/30 13:10:13;;;;;;;1.57;0.80;;;;;;;;;;5113370;28;20016;-66
2021/08/30 13:12:40;;;;;;;2.30;0.67;;;;;;;;;;5110403;28;20036;-67
2021/08/30 13:15:07;;;;;;;1.83;0.60;;;;;;;;;;5108272;28;20034;-66
2021/08/30 13:17:34;;;;;;;4.03;1.10;;;;;;;;;;5095059;28;20031;-66
2021/08/30 13:20:01;;;;;;;3.17;0.80;;;;;;;;;;5100402;28;20035;-66
2021/08/30 13:22:28;;;;;;;2.50;0.83;;;;;;;;;;5109840;28;20437;-67
2021/08/30 13:24:55;;;;;;;5.83;1.13;;;;;;;;;;5113292;28;20034;-66
2021/08/30 13:27:22;;;;;;;2.00;0.80;;;;;;;;;;5113376;28;20059;-67
2021/08/30 13:29:49;;;;;;;3.00;1.00;;;;;;;;;;5113152;28;20024;-67
2021/08/30 13:32:16;;;;;;;6.00;1.20;;;;;;;;;;5113219;28;20486;-66
2021/08/30 13:34:44;;;;;;;2.10;0.90;;;;;;;;;;5110859;28;20106;-67
2021/08/30 13:37:11;;;;;;;3.63;0.77;;;;;;;;;;5108383;28;20423;-66
2021/08/30 13:39:37;;;;;;;5.67;0.97;;;;;;;;;;5096936;28;20056;-67
2021/08/30 13:42:04;;;;;;;3.33;0.70;;;;;;;;;;5087525;28;20031;-67
2021/08/30 13:44:32;;;;;;;3.13;1.10;;;;;;;;;;5088901;28;20111;-67
2021/08/30 13:46:58;;;;;;;4.13;1.00;;;;;;;;;;5092559;28;20052;-67
2021/08/30 13:49:25;;;;;;;2.03;0.87;;;;;;;;;;5111649;28;20034;-67
2021/08/30 13:51:52;;;;;;;1.67;0.80;;;;;;;;;;5112778;28;20027;-67
2021/08/30 13:54:19;;;;;;;3.13;0.70;;;;;;;;;;5112928;28;20026;-67
2021/08/30 13:56:46;;;;;;;1.97;0.60;;;;;;;;;;5111168;28;20474;-67
2021/08/30 13:59:12;;;;;;;6.10;1.10;;;;;;;;;;5107595;28;20096;-67
2021/08/30 14:01:39;;;;;;;1.47;0.83;;;;;;;;;;5107582;28;20410;-67
2021/08/30 14:04:06;;;;;;;1.53;0.70;;;;;;;;;;5107309;28;20023;-67
2021/08/30 14:06:34;;;;;;;2.57;0.90;;;;;;;;;;5097337;28;20509;-67
2021/08/30 14:09:01;;;;;;;3.00;0.70;;;;;;;;;;5092222;28;20425;-67
2021/08/30 14:11:28;;;;;;;1.17;0.63;;;;;;;;;;5092394;28;20395;-67
2021/08/30 14:13:55;;;;;;;4.47;0.93;;;;;;;;;;5092074;28;20030;-67
2021/08/30 14:16:22;;;;;;;1.83;0.83;;;;;;;;;;5091900;28;20073;-67
2021/08/30 14:18:48;;;;;;;1.83;0.80;;;;;;;;;;5091732;28;20027;-67
2021/08/30 14:21:15;;;;;;;2.27;0.87;;;;;;;;;;5086880;28;20066;-67
2021/08/30 14:23:42;;;;;;;1.90;0.80;;;;;;;;;;5088378;28;20495;-68
2021/08/30 14:26:11;;;;;;;2.83;1.10;;;;;;;;;;5107293;28;20126;-68
2021/08/30 14:28:38;;;;;;;1.33;0.80;;;;;;;;;;5107161;28;20035;-67
2021/08/30 14:31:05;;;;;;;1.20;0.80;;;;;;;;;;5112285;28;20016;-68
2021/08/30 14:33:31;;;;;;;1.30;0.60;;;;;;;;;;5112000;28;20032;-68
2021/08/30 14:35:58;;;;;;;2.60;0.70;;;;;;;;;;5112360;28;20538;-68
2021/08/30 14:38:25;;;;;;;4.03;1.00;;;;;;;;;;5112419;28;20024;-68
2021/08/30 14:40:52;;;;;;;2.77;1.00;;;;;;;;;;5112432;28;20102;-68
2021/08/30 14:43:18;;;;;;;1.50;0.73;;;;;;;;;;5107271;28;20020;-68
2021/08/30 14:45:45;;;;;;;2.13;1.00;;;;;;;;;;5107255;28;20035;-68
2021/08/30 14:48:12;;;;;;;2.57;1.10;;;;;;;;;;5107239;28;20024;-67
2021/08/30 14:50:39;;;;;;;4.50;1.47;;;;;;;;;;5101016;28;20072;-67
2021/08/30 14:53:07;;;;;;;3.73;1.20;;;;;;;;;;5090723;28;20032;-68